ADDS METAR Data INFO
IDs: Format: Raw Decoded Include TAF

Data at: 1311 UTC 19 Jul 2018

KRWF 191253Z AUTO 13015KT 10SM BKN011 OVC015 21/20 A2974 RMK AO2 LTG DSNT NE AND S CIG 009V012 SLP063 T02060200
KRWF 191153Z AUTO 14010KT 10SM BKN010 OVC025 21/19 A2976 RMK AO2 LTG DSNT N-E RAE1058 CIG 008V013 SLP071 P0000 60025 70025 T02060194 10217 20200 56021
KRWF 191144Z AUTO 15008KT 10SM BKN012 OVC025 21/19 A2976 RMK AO2 LTG DSNT N AND NE RAE1058 P0000 T02060194
KRWF 191116Z AUTO 15012KT 10SM VCTS BKN026 OVC033 21/19 A2976 RMK AO2 LTG DSNT N RAE1058 P0000 T02060194
KRWF 191053Z AUTO 12011KT 5SM -RA BR OVC033 20/19 A2976 RMK AO2 LTG DSNT NE AND NW SLP073 P0008 T02000194
KRWF 190953Z AUTO 12007KT 6SM -RA BR OVC050 21/19 A2981 RMK AO2 LTG DSNT N AND W RAE18B39 SLP087 P0003 T02060194
KRWF 190853Z AUTO 12008KT 8SM RA OVC060 21/19 A2982 RMK AO2 LTG DSNT SW AND W RAE30B53 SLP093 P0014 60014 T02060194 56021
KRWF 190829Z AUTO 10008G16KT 10SM -RA FEW036 BKN048 OVC060 21/19 A2983 RMK AO2 LTG DSNT SW P0013 T02060194
KRWF 190820Z AUTO 11009G16KT 2SM RA BR SCT032 BKN048 OVC110 21/19 A2983 RMK AO2 LTG DSNT SW P0013 T02060194
KRWF 190753Z AUTO 14011KT 9SM -RA FEW048 BKN080 OVC110 22/19 A2985 RMK AO2 RAB52 SLP100 P0000 T02170189
KRWF 190653Z AUTO 13010KT 10SM FEW050 OVC065 22/19 A2986 RMK AO2 SLP105 T02170189
KRWF 190553Z AUTO 12008KT 10SM SCT060 BKN085 21/19 A2989 RMK AO2 SLP115 T02110189 10261 20211 402830161 58008
KRWF 190453Z AUTO 12009KT 10SM SCT090 22/19 A2990 RMK AO2 SLP120 T02170189
KRWF 190353Z AUTO 12009KT 10SM CLR 22/19 A2992 RMK AO2 SLP125 T02220194
KRWF 190253Z AUTO 11006KT 10SM CLR 23/19 A2991 RMK AO2 SLP124 T02280194 58009
KRWF 190153Z AUTO 12005KT 10SM CLR 24/19 A2993 RMK AO2 SLP130 T02390194
KRWF 190053Z AUTO 12006KT 10SM CLR 26/20 A2994 RMK AO2 SLP132 T02560200
KRWF 182353Z AUTO 11007KT 10SM CLR 26/20 A2994 RMK AO2 SLP134 T02610200 10283 20256 56020
KRWF 182253Z AUTO 12009KT 10SM FEW047 27/18 A2996 RMK AO2 SLP140 T02670183
KRWF 182153Z AUTO 13010KT 10SM FEW042 27/19 A2998 RMK AO2 SLP146 T02720194
KRWF 182053Z AUTO 17010KT 10SM CLR 28/19 A3000 RMK AO2 SLP155 T02830194 56014
KRWF 181953Z AUTO 14008KT 10SM FEW065 28/19 A3001 RMK AO2 SLP158 T02780189
KRWF 181853Z AUTO 17010KT 10SM CLR 28/19 A3003 RMK AO2 SLP164 T02780189
KRWF 181753Z AUTO 13008KT 10SM FEW085 26/19 A3005 RMK AO2 SLP170 T02610194 10267 20172 58006
KRWF 181653Z AUTO 13008KT 10SM BKN085 25/19 A3006 RMK AO2 SLP173 T02500189
KRWF 181553Z AUTO 13010KT 10SM CLR 24/18 A3007 RMK AO2 SLP176 T02440183
KRWF 181453Z AUTO 15011KT 10SM CLR 23/18 A3007 RMK AO2 SLP176 T02330178 58007
KRWF 181353Z AUTO 15010KT 10SM CLR 22/17 A3009 RMK AO2 SLP185 T02170172
KRWF 181253Z AUTO 13007KT 10SM CLR 19/17 A3009 RMK AO2 SLP185 T01940167
KRWF 181153Z AUTO 09004KT 10SM SCT075 17/16 A3009 RMK AO2 SLP184 T01720156 10183 20161 56005
KRWF 181053Z AUTO 14004KT 10SM BKN050 17/16 A3009 RMK AO2 SLP186 T01720156
KRWF 180953Z AUTO 14006KT 10SM SCT048 17/15 A3009 RMK AO2 SLP185 T01670150
KRWF 180853Z AUTO 16004KT 10SM CLR 16/14 A3010 RMK AO2 SLP189 T01610144 51002
KRWF 180753Z AUTO 13006KT 10SM CLR 17/14 A3010 RMK AO2 SLP188 T01670144
KRWF 180653Z AUTO 12005KT 10SM CLR 17/15 A3010 RMK AO2 SLP189 T01720150
KRWF 180553Z AUTO 12005KT 10SM CLR 18/15 A3010 RMK AO2 SLP187 T01830150 10261 20183 402720161 50001
KRWF 180453Z AUTO 11004KT 10SM CLR 19/15 A3010 RMK AO2 SLP187 T01940150
KRWF 180353Z AUTO 09005KT 10SM CLR 21/17 A3010 RMK AO2 SLP187 T02060167
KRWF 180253Z AUTO 07004KT 10SM CLR 22/17 A3009 RMK AO2 SLP185 T02170172 55002
KRWF 180153Z AUTO 06003KT 10SM CLR 23/17 A3008 RMK AO2 SLP182 T02330172